sensor_id;sensor_type;location;lat;lon;timestamp;pressure;altitude;pressure_sealevel;temperature;humidity
69200;BME280;56313;49.804;9.952;2022-08-01T00:00:41;99175.31;;;21.87;52.65
69200;BME280;56313;49.804;9.952;2022-08-01T00:03:07;99178.88;;;21.81;52.70
69200;BME280;56313;49.804;9.952;2022-08-01T00:05:32;99179.38;;;21.89;52.51
69200;BME280;56313;49.804;9.952;2022-08-01T00:07:58;99181.44;;;21.87;52.91
69200;BME280;56313;49.804;9.952;2022-08-01T00:10:23;99182.66;;;21.92;53.06
69200;BME280;56313;49.804;9.952;2022-08-01T00:12:49;99179.50;;;21.95;52.65
69200;BME280;56313;49.804;9.952;2022-08-01T00:15:16;99175.66;;;21.90;53.11
69200;BME280;56313;49.804;9.952;2022-08-01T00:17:42;99182.88;;;21.90;52.93
69200;BME280;56313;49.804;9.952;2022-08-01T00:20:14;99177.88;;;21.94;52.96
69200;BME280;56313;49.804;9.952;2022-08-01T00:22:40;99180.03;;;21.85;53.67
69200;BME280;56313;49.804;9.952;2022-08-01T00:25:06;99181.22;;;21.89;53.28
69200;BME280;56313;49.804;9.952;2022-08-01T00:27:32;99177.31;;;21.92;54.54
69200;BME280;56313;49.804;9.952;2022-08-01T00:29:57;99170.56;;;21.70;54.06
69200;BME280;56313;49.804;9.952;2022-08-01T00:32:26;99179.38;;;21.71;59.98
69200;BME280;56313;49.804;9.952;2022-08-01T00:34:51;99176.78;;;21.83;53.96
69200;BME280;56313;49.804;9.952;2022-08-01T00:37:17;99175.81;;;21.77;53.95
69200;BME280;56313;49.804;9.952;2022-08-01T00:39:42;99186.69;;;21.75;54.21
69200;BME280;56313;49.804;9.952;2022-08-01T00:42:09;99181.56;;;21.55;54.90
69200;BME280;56313;49.804;9.952;2022-08-01T00:44:36;99187.56;;;21.50;54.73
69200;BME280;56313;49.804;9.952;2022-08-01T00:47:02;99188.59;;;21.49;54.90
69200;BME280;56313;49.804;9.952;2022-08-01T00:49:27;99185.78;;;21.44;55.27
69200;BME280;56313;49.804;9.952;2022-08-01T00:51:54;99195.13;;;21.35;55.91
69200;BME280;56313;49.804;9.952;2022-08-01T00:54:26;99194.72;;;21.31;56.20
69200;BME280;56313;49.804;9.952;2022-08-01T00:56:53;99192.28;;;21.30;56.16
69200;BME280;56313;49.804;9.952;2022-08-01T00:59:20;99196.06;;;21.22;56.52
69200;BME280;56313;49.804;9.952;2022-08-01T01:01:46;99192.47;;;21.09;56.81
69200;BME280;56313;49.804;9.952;2022-08-01T01:04:12;99196.09;;;20.89;57.76
69200;BME280;56313;49.804;9.952;2022-08-01T01:10:00;99193.84;;;20.86;57.60
69200;BME280;56313;49.804;9.952;2022-08-01T01:15:04;99195.31;;;20.82;58.02
69200;BME280;56313;49.804;9.952;2022-08-01T01:17:38;99196.59;;;20.73;58.02
69200;BME280;56313;49.804;9.952;2022-08-01T01:20:05;99202.97;;;20.72;58.37
69200;BME280;56313;49.804;9.952;2022-08-01T01:27:51;99196.38;;;20.74;58.42
69200;BME280;56313;49.804;9.952;2022-08-01T01:30:24;99192.19;;;20.92;58.08
69200;BME280;56313;49.804;9.952;2022-08-01T01:32:53;99198.88;;;21.01;57.73
69200;BME280;56313;49.804;9.952;2022-08-01T01:35:24;99207.09;;;21.00;57.93
69200;BME280;56313;49.804;9.952;2022-08-01T01:37:56;99201.13;;;21.05;57.62
69200;BME280;56313;49.804;9.952;2022-08-01T01:40:23;99205.75;;;20.91;58.50
69200;BME280;56313;49.804;9.952;2022-08-01T01:42:50;99199.31;;;20.66;59.09
69200;BME280;56313;49.804;9.952;2022-08-01T01:45:17;99200.94;;;20.42;59.76
69200;BME280;56313;49.804;9.952;2022-08-01T01:47:44;99203.19;;;20.38;59.88
69200;BME280;56313;49.804;9.952;2022-08-01T01:50:11;99207.72;;;20.31;60.23
69200;BME280;56313;49.804;9.952;2022-08-01T01:52:39;99202.88;;;20.21;60.60
69200;BME280;56313;49.804;9.952;2022-08-01T01:55:06;99211.47;;;20.16;60.77
69200;BME280;56313;49.804;9.952;2022-08-01T01:57:36;99212.31;;;20.10;60.98
69200;BME280;56313;49.804;9.952;2022-08-01T02:00:03;99213.38;;;20.09;61.30
69200;BME280;56313;49.804;9.952;2022-08-01T02:02:31;99206.00;;;19.97;61.64
69200;BME280;56313;49.804;9.952;2022-08-01T02:04:58;99214.78;;;19.98;61.60
69200;BME280;56313;49.804;9.952;2022-08-01T02:07:24;99210.50;;;19.97;61.62
69200;BME280;56313;49.804;9.952;2022-08-01T02:09:52;99211.31;;;19.97;61.47
69200;BME280;56313;49.804;9.952;2022-08-01T02:12:20;99206.88;;;19.84;62.13
69200;BME280;56313;49.804;9.952;2022-08-01T02:14:49;99213.22;;;19.77;62.34
69200;BME280;56313;49.804;9.952;2022-08-01T02:17:19;99219.91;;;19.99;61.69
69200;BME280;56313;49.804;9.952;2022-08-01T02:19:45;99230.13;;;19.96;61.39
69200;BME280;56313;49.804;9.952;2022-08-01T02:22:21;99227.75;;;19.81;62.03
69200;BME280;56313;49.804;9.952;2022-08-01T02:24:52;99231.56;;;19.98;62.34
69200;BME280;56313;49.804;9.952;2022-08-01T02:27:30;99229.91;;;19.97;61.96
69200;BME280;56313;49.804;9.952;2022-08-01T02:30:00;99233.19;;;19.99;61.70
69200;BME280;56313;49.804;9.952;2022-08-01T02:32:31;99230.75;;;19.98;61.82
69200;BME280;56313;49.804;9.952;2022-08-01T02:34:57;99222.34;;;19.94;61.99
69200;BME280;56313;49.804;9.952;2022-08-01T02:37:31;99228.31;;;19.90;62.21
69200;BME280;56313;49.804;9.952;2022-08-01T02:40:01;99225.47;;;19.84;62.84
69200;BME280;56313;49.804;9.952;2022-08-01T02:42:28;99222.81;;;19.84;62.84
69200;BME280;56313;49.804;9.952;2022-08-01T02:44:55;99221.59;;;19.80;63.17
69200;BME280;56313;49.804;9.952;2022-08-01T02:47:22;99219.97;;;19.79;63.28
69200;BME280;56313;49.804;9.952;2022-08-01T02:49:49;99220.56;;;19.88;62.97
69200;BME280;56313;49.804;9.952;2022-08-01T02:52:18;99224.47;;;19.79;63.64
69200;BME280;56313;49.804;9.952;2022-08-01T02:54:49;99228.56;;;19.74;63.76
69200;BME280;56313;49.804;9.952;2022-08-01T02:57:17;99235.72;;;19.74;63.74
69200;BME280;56313;49.804;9.952;2022-08-01T02:59:46;99239.41;;;19.66;64.19
69200;BME280;56313;49.804;9.952;2022-08-01T03:02:13;99245.97;;;19.63;64.23
69200;BME280;56313;49.804;9.952;2022-08-01T03:04:40;99245.09;;;19.77;64.68
69200;BME280;56313;49.804;9.952;2022-08-01T03:07:08;99247.16;;;20.73;66.45
69200;BME280;56313;49.804;9.952;2022-08-01T03:09:39;99244.56;;;20.27;62.39
69200;BME280;56313;49.804;9.952;2022-08-01T03:12:11;99252.25;;;19.90;63.62
69200;BME280;56313;49.804;9.952;2022-08-01T03:14:39;99245.91;;;19.84;63.78
69200;BME280;56313;49.804;9.952;2022-08-01T03:17:07;99237.75;;;19.79;63.96
69200;BME280;56313;49.804;9.952;2022-08-01T03:19:34;99256.41;;;19.58;64.61
69200;BME280;56313;49.804;9.952;2022-08-01T03:22:01;99248.25;;;19.46;65.15
69200;BME280;56313;49.804;9.952;2022-08-01T03:24:31;99246.81;;;19.50;65.25
69200;BME280;56313;49.804;9.952;2022-08-01T03:26:58;99249.03;;;19.67;64.33
69200;BME280;56313;49.804;9.952;2022-08-01T03:29:27;99250.03;;;19.66;64.49
69200;BME280;56313;49.804;9.952;2022-08-01T03:31:53;99247.78;;;19.63;64.17
69200;BME280;56313;49.804;9.952;2022-08-01T03:34:18;99256.81;;;19.48;64.99
69200;BME280;56313;49.804;9.952;2022-08-01T03:36:49;99257.63;;;19.42;65.37
69200;BME280;56313;49.804;9.952;2022-08-01T03:39:19;99258.84;;;19.40;65.28
69200;BME280;56313;49.804;9.952;2022-08-01T03:41:51;99259.06;;;19.31;65.58
69200;BME280;56313;49.804;9.952;2022-08-01T03:44:24;99255.00;;;19.35;65.64
69200;BME280;56313;49.804;9.952;2022-08-01T03:46:56;99256.41;;;19.38;65.62
69200;BME280;56313;49.804;9.952;2022-08-01T03:49:26;99259.66;;;19.33;65.76
69200;BME280;56313;49.804;9.952;2022-08-01T03:51:54;99262.34;;;19.40;65.61
69200;BME280;56313;49.804;9.952;2022-08-01T03:54:23;99260.28;;;19.35;65.73
69200;BME280;56313;49.804;9.952;2022-08-01T03:56:50;99258.06;;;19.26;65.68
69200;BME280;56313;49.804;9.952;2022-08-01T03:59:17;99254.78;;;19.37;65.75
69200;BME280;56313;49.804;9.952;2022-08-01T04:01:45;99259.25;;;19.36;65.76
69200;BME280;56313;49.804;9.952;2022-08-01T04:04:11;99255.41;;;19.26;66.11
69200;BME280;56313;49.804;9.952;2022-08-01T04:06:38;99257.03;;;19.20;66.59
69200;BME280;56313;49.804;9.952;2022-08-01T04:09:04;99263.56;;;19.17;66.62
69200;BME280;56313;49.804;9.952;2022-08-01T04:11:30;99264.38;;;19.11;67.04
69200;BME280;56313;49.804;9.952;2022-08-01T04:13:55;99259.69;;;19.13;67.19
69200;BME280;56313;49.804;9.952;2022-08-01T04:16:21;99264.38;;;19.11;67.47
69200;BME280;56313;49.804;9.952;2022-08-01T04:18:47;99275.41;;;19.08;67.69
69200;BME280;56313;49.804;9.952;2022-08-01T04:21:14;99270.09;;;19.15;67.37
69200;BME280;56313;49.804;9.952;2022-08-01T04:23:44;99272.34;;;19.18;67.53
69200;BME280;56313;49.804;9.952;2022-08-01T04:26:12;99281.53;;;19.15;67.63
69200;BME280;56313;49.804;9.952;2022-08-01T04:28:41;99278.06;;;19.15;67.71
69200;BME280;56313;49.804;9.952;2022-08-01T04:31:09;99272.34;;;19.18;67.79
69200;BME280;56313;49.804;9.952;2022-08-01T04:33:38;99276.84;;;19.24;67.65
69200;BME280;56313;49.804;9.952;2022-08-01T04:36:06;99276.22;;;19.35;67.44
69200;BME280;56313;49.804;9.952;2022-08-01T04:38:34;99279.31;;;19.39;67.31
69200;BME280;56313;49.804;9.952;2022-08-01T04:41:03;99281.34;;;19.37;67.46
69200;BME280;56313;49.804;9.952;2022-08-01T04:43:31;99276.44;;;19.27;67.83
69200;BME280;56313;49.804;9.952;2022-08-01T04:45:58;99279.91;;;19.34;67.74
69200;BME280;56313;49.804;9.952;2022-08-01T04:48:24;99278.06;;;19.35;67.69
69200;BME280;56313;49.804;9.952;2022-08-01T04:50:50;99278.69;;;19.30;67.76
69200;BME280;56313;49.804;9.952;2022-08-01T04:53:18;99273.78;;;19.41;67.95
69200;BME280;56313;49.804;9.952;2022-08-01T04:55:45;99280.09;;;19.60;67.39
69200;BME280;56313;49.804;9.952;2022-08-01T04:58:12;99284.56;;;19.66;67.26
69200;BME280;56313;49.804;9.952;2022-08-01T05:00:38;99288.44;;;19.77;66.85
69200;BME280;56313;49.804;9.952;2022-08-01T05:03:03;99291.50;;;19.87;65.96
69200;BME280;56313;49.804;9.952;2022-08-01T05:05:29;99294.53;;;19.98;65.61
69200;BME280;56313;49.804;9.952;2022-08-01T05:07:55;99284.69;;;20.12;65.30
69200;BME280;56313;49.804;9.952;2022-08-01T05:10:21;99286.69;;;20.30;64.41
69200;BME280;56313;49.804;9.952;2022-08-01T05:12:46;99286.47;;;20.38;64.14
69200;BME280;56313;49.804;9.952;2022-08-01T05:15:12;99285.44;;;20.40;64.15
69200;BME280;56313;49.804;9.952;2022-08-01T05:17:37;99293.78;;;20.50;64.14
69200;BME280;56313;49.804;9.952;2022-08-01T05:20:03;99290.34;;;20.82;66.95
69200;BME280;56313;49.804;9.952;2022-08-01T05:22:28;99288.28;;;21.16;66.03
69200;BME280;56313;49.804;9.952;2022-08-01T05:24:54;99297.56;;;21.07;62.69
69200;BME280;56313;49.804;9.952;2022-08-01T05:27:19;99295.38;;;20.97;62.67
69200;BME280;56313;49.804;9.952;2022-08-01T05:29:45;99297.38;;;21.01;62.63
69200;BME280;56313;49.804;9.952;2022-08-01T05:32:10;99293.75;;;20.96;63.96
69200;BME280;56313;49.804;9.952;2022-08-01T05:34:36;99296.59;;;21.01;65.17
69200;BME280;56313;49.804;9.952;2022-08-01T05:37:01;99298.16;;;21.09;63.22
69200;BME280;56313;49.804;9.952;2022-08-01T05:39:27;99296.34;;;21.35;65.98
69200;BME280;56313;49.804;9.952;2022-08-01T05:41:53;99299.22;;;21.33;66.35
69200;BME280;56313;49.804;9.952;2022-08-01T05:44:18;99295.22;;;21.43;65.59
69200;BME280;56313;49.804;9.952;2022-08-01T05:46:43;99298.94;;;21.42;65.17
69200;BME280;56313;49.804;9.952;2022-08-01T05:49:09;99290.13;;;21.16;62.29
69200;BME280;56313;49.804;9.952;2022-08-01T05:51:34;99294.47;;;21.35;66.50
69200;BME280;56313;49.804;9.952;2022-08-01T05:53:59;99296.88;;;21.18;62.27
69200;BME280;56313;49.804;9.952;2022-08-01T05:56:25;99295.28;;;21.10;64.58
69200;BME280;56313;49.804;9.952;2022-08-01T05:58:51;99294.47;;;21.61;62.47
69200;BME280;56313;49.804;9.952;2022-08-01T06:01:17;99302.06;;;21.83;61.48
69200;BME280;56313;49.804;9.952;2022-08-01T06:03:43;99293.09;;;21.77;64.85
69200;BME280;56313;49.804;9.952;2022-08-01T06:06:08;99292.75;;;21.67;65.22
69200;BME280;56313;49.804;9.952;2022-08-01T06:08:34;99298.91;;;21.93;63.47
69200;BME280;56313;49.804;9.952;2022-08-01T06:11:00;99301.75;;;21.72;65.02
69200;BME280;56313;49.804;9.952;2022-08-01T06:13:26;99307.66;;;21.56;66.27
69200;BME280;56313;49.804;9.952;2022-08-01T06:15:51;99305.94;;;21.61;65.93
69200;BME280;56313;49.804;9.952;2022-08-01T06:18:17;99303.38;;;21.73;65.23
69200;BME280;56313;49.804;9.952;2022-08-01T06:20:42;99302.53;;;21.80;64.74
69200;BME280;56313;49.804;9.952;2022-08-01T06:23:08;99303.81;;;21.70;64.47
69200;BME280;56313;49.804;9.952;2022-08-01T06:25:34;99306.81;;;21.99;64.33
69200;BME280;56313;49.804;9.952;2022-08-01T06:27:59;99306.66;;;21.75;65.32
69200;BME280;56313;49.804;9.952;2022-08-01T06:30:25;99306.16;;;21.60;66.05
69200;BME280;56313;49.804;9.952;2022-08-01T06:32:51;99311.94;;;21.82;64.89
69200;BME280;56313;49.804;9.952;2022-08-01T06:35:17;99312.97;;;22.19;62.18
69200;BME280;56313;49.804;9.952;2022-08-01T06:37:42;99315.50;;;22.13;63.28
69200;BME280;56313;49.804;9.952;2022-08-01T06:40:11;99314.09;;;21.92;64.36
69200;BME280;56313;49.804;9.952;2022-08-01T06:42:37;99318.53;;;21.73;65.16
69200;BME280;56313;49.804;9.952;2022-08-01T06:45:08;99316.59;;;21.61;65.40
69200;BME280;56313;49.804;9.952;2022-08-01T06:47:34;99321.88;;;21.68;65.59
69200;BME280;56313;49.804;9.952;2022-08-01T06:49:59;99316.06;;;22.53;59.12
69200;BME280;56313;49.804;9.952;2022-08-01T06:52:25;99325.06;;;22.89;58.59
69200;BME280;56313;49.804;9.952;2022-08-01T06:54:51;99325.84;;;21.84;64.24
69200;BME280;56313;49.804;9.952;2022-08-01T06:57:16;99319.56;;;22.16;63.09
69200;BME280;56313;49.804;9.952;2022-08-01T06:59:42;99311.53;;;21.79;64.54
69200;BME280;56313;49.804;9.952;2022-08-01T07:02:07;99321.06;;;21.68;65.14
69200;BME280;56313;49.804;9.952;2022-08-01T07:04:33;99322.81;;;21.55;65.74
69200;BME280;56313;49.804;9.952;2022-08-01T07:06:59;99322.06;;;21.92;63.19
69200;BME280;56313;49.804;9.952;2022-08-01T07:09:25;99331.47;;;21.95;64.21
69200;BME280;56313;49.804;9.952;2022-08-01T07:11:51;99324.81;;;22.60;59.80
69200;BME280;56313;49.804;9.952;2022-08-01T07:14:18;99325.50;;;22.18;62.77
69200;BME280;56313;49.804;9.952;2022-08-01T07:16:44;99328.91;;;22.07;62.36
69200;BME280;56313;49.804;9.952;2022-08-01T07:19:09;99328.25;;;21.93;61.80
69200;BME280;56313;49.804;9.952;2022-08-01T07:21:35;99325.34;;;21.69;64.62
69200;BME280;56313;49.804;9.952;2022-08-01T07:24:00;99327.53;;;21.79;64.42
69200;BME280;56313;49.804;9.952;2022-08-01T07:26:26;99322.78;;;22.06;63.14
69200;BME280;56313;49.804;9.952;2022-08-01T07:28:52;99321.34;;;22.03;62.56
69200;BME280;56313;49.804;9.952;2022-08-01T07:31:18;99316.44;;;21.82;64.92
69200;BME280;56313;49.804;9.952;2022-08-01T07:33:43;99319.59;;;21.97;64.56
69200;BME280;56313;49.804;9.952;2022-08-01T07:36:09;99317.19;;;22.64;59.36
69200;BME280;56313;49.804;9.952;2022-08-01T07:38:34;99315.81;;;22.73;61.62
69200;BME280;56313;49.804;9.952;2022-08-01T07:40:59;99309.38;;;21.69;65.16
69200;BME280;56313;49.804;9.952;2022-08-01T07:43:25;99324.09;;;21.97;63.57
69200;BME280;56313;49.804;9.952;2022-08-01T07:45:50;99319.56;;;22.16;61.18
69200;BME280;56313;49.804;9.952;2022-08-01T07:48:16;99321.09;;;22.43;59.87
69200;BME280;56313;49.804;9.952;2022-08-01T07:50:42;99322.47;;;22.14;63.30
69200;BME280;56313;49.804;9.952;2022-08-01T07:53:07;99317.66;;;22.42;60.76
69200;BME280;56313;49.804;9.952;2022-08-01T07:55:35;99321.34;;;22.22;62.78
69200;BME280;56313;49.804;9.952;2022-08-01T07:58:00;99314.63;;;22.20;63.19
69200;BME280;56313;49.804;9.952;2022-08-01T08:00:25;99321.03;;;22.49;58.87
69200;BME280;56313;49.804;9.952;2022-08-01T08:02:52;99311.31;;;22.55;59.33
69200;BME280;56313;49.804;9.952;2022-08-01T08:05:18;99319.56;;;22.84;57.64
69200;BME280;56313;49.804;9.952;2022-08-01T08:07:45;99308.03;;;23.02;58.40
69200;BME280;56313;49.804;9.952;2022-08-01T08:10:11;99306.44;;;22.33;61.43
69200;BME280;56313;49.804;9.952;2022-08-01T08:12:37;99320.38;;;21.79;64.79
69200;BME280;56313;49.804;9.952;2022-08-01T08:15:03;99323.50;;;22.32;62.43
69200;BME280;56313;49.804;9.952;2022-08-01T08:17:30;99314.69;;;22.13;60.09
69200;BME280;56313;49.804;9.952;2022-08-01T08:19:57;99316.59;;;22.06;63.03
69200;BME280;56313;49.804;9.952;2022-08-01T08:22:22;99309.41;;;22.25;62.54
69200;BME280;56313;49.804;9.952;2022-08-01T08:24:47;99311.72;;;22.40;61.90
69200;BME280;56313;49.804;9.952;2022-08-01T08:27:13;99302.50;;;22.85;55.96
69200;BME280;56313;49.804;9.952;2022-08-01T08:29:39;99308.69;;;23.64;54.15
69200;BME280;56313;49.804;9.952;2022-08-01T08:32:04;99305.69;;;23.61;53.98
69200;BME280;56313;49.804;9.952;2022-08-01T08:34:30;99316.09;;;22.15;62.69
69200;BME280;56313;49.804;9.952;2022-08-01T08:36:56;99310.38;;;21.93;63.64
69200;BME280;56313;49.804;9.952;2022-08-01T08:39:23;99301.94;;;22.34;61.79
69200;BME280;56313;49.804;9.952;2022-08-01T08:41:49;99311.97;;;21.75;62.04
69200;BME280;56313;49.804;9.952;2022-08-01T08:44:14;99305.88;;;22.31;61.83
69200;BME280;56313;49.804;9.952;2022-08-01T08:46:46;99312.25;;;22.30;62.17
69200;BME280;56313;49.804;9.952;2022-08-01T08:49:16;99313.19;;;21.80;64.35
69200;BME280;56313;49.804;9.952;2022-08-01T08:51:42;99304.22;;;22.49;57.79
69200;BME280;56313;49.804;9.952;2022-08-01T08:54:11;99316.44;;;22.38;60.36
69200;BME280;56313;49.804;9.952;2022-08-01T08:56:40;99304.66;;;22.95;55.30
69200;BME280;56313;49.804;9.952;2022-08-01T08:59:07;99298.00;;;23.64;54.61
69200;BME280;56313;49.804;9.952;2022-08-01T09:01:32;99303.25;;;22.43;61.76
69200;BME280;56313;49.804;9.952;2022-08-01T09:03:58;99299.28;;;23.38;55.07
69200;BME280;56313;49.804;9.952;2022-08-01T09:06:24;99302.16;;;22.32;62.01
69200;BME280;56313;49.804;9.952;2022-08-01T09:08:50;99304.16;;;21.74;64.38
69200;BME280;56313;49.804;9.952;2022-08-01T09:11:15;99312.59;;;21.96;62.74
69200;BME280;56313;49.804;9.952;2022-08-01T09:13:41;99317.56;;;21.93;63.86
69200;BME280;56313;49.804;9.952;2022-08-01T09:16:06;99327.13;;;22.00;62.93
69200;BME280;56313;49.804;9.952;2022-08-01T09:18:39;99320.47;;;21.91;60.50
69200;BME280;56313;49.804;9.952;2022-08-01T09:23:48;99321.84;;;22.50;60.39
69200;BME280;56313;49.804;9.952;2022-08-01T09:26:19;99327.44;;;22.11;63.26
69200;BME280;56313;49.804;9.952;2022-08-01T09:28:47;99322.75;;;21.87;64.41
69200;BME280;56313;49.804;9.952;2022-08-01T09:31:14;99315.47;;;22.70;58.63
69200;BME280;56313;49.804;9.952;2022-08-01T09:34:00;99317.94;;;22.52;61.51
69200;BME280;56313;49.804;9.952;2022-08-01T09:39:18;99317.63;;;22.61;61.28
69200;BME280;56313;49.804;9.952;2022-08-01T09:41:44;99328.69;;;22.27;61.90
69200;BME280;56313;49.804;9.952;2022-08-01T09:44:10;99327.66;;;23.08;56.53
69200;BME280;56313;49.804;9.952;2022-08-01T09:46:35;99336.25;;;22.30;60.46
69200;BME280;56313;49.804;9.952;2022-08-01T09:49:03;99320.94;;;22.56;61.08
69200;BME280;56313;49.804;9.952;2022-08-01T09:51:34;99319.03;;;22.45;61.74
69200;BME280;56313;49.804;9.952;2022-08-01T09:54:02;99332.09;;;22.15;63.23
69200;BME280;56313;49.804;9.952;2022-08-01T09:56:36;99322.84;;;22.18;62.73
69200;BME280;56313;49.804;9.952;2022-08-01T09:59:02;99325.78;;;22.47;61.66
69200;BME280;56313;49.804;9.952;2022-08-01T10:01:47;99327.13;;;23.30;56.00
69200;BME280;56313;49.804;9.952;2022-08-01T10:04:19;99323.38;;;22.76;60.79
69200;BME280;56313;49.804;9.952;2022-08-01T10:06:46;99325.47;;;22.56;61.25
69200;BME280;56313;49.804;9.952;2022-08-01T10:09:14;99322.16;;;22.91;59.49
69200;BME280;56313;49.804;9.952;2022-08-01T10:11:43;99323.34;;;22.46;61.82
69200;BME280;56313;49.804;9.952;2022-08-01T10:14:09;99315.50;;;23.24;58.03
69200;BME280;56313;49.804;9.952;2022-08-01T10:16:36;99317.84;;;23.33;57.19
69200;BME280;56313;49.804;9.952;2022-08-01T10:19:06;99316.13;;;23.74;57.51
69200;BME280;56313;49.804;9.952;2022-08-01T10:21:33;99314.19;;;23.15;54.91
69200;BME280;56313;49.804;9.952;2022-08-01T10:24:02;99304.22;;;24.30;53.20
69200;BME280;56313;49.804;9.952;2022-08-01T10:26:32;99311.72;;;23.44;57.18
69200;BME280;56313;49.804;9.952;2022-08-01T10:28:59;99304.03;;;23.72;56.10
69200;BME280;56313;49.804;9.952;2022-08-01T10:31:25;99310.84;;;23.20;58.06
69200;BME280;56313;49.804;9.952;2022-08-01T10:33:55;99306.34;;;22.77;60.29
69200;BME280;56313;49.804;9.952;2022-08-01T10:36:22;99314.41;;;22.21;62.80
69200;BME280;56313;49.804;9.952;2022-08-01T10:38:49;99304.59;;;22.52;61.62
69200;BME280;56313;49.804;9.952;2022-08-01T10:41:18;99298.97;;;23.03;58.37
69200;BME280;56313;49.804;9.952;2022-08-01T10:43:43;99301.28;;;23.54;53.67
69200;BME280;56313;49.804;9.952;2022-08-01T10:46:09;99301.03;;;22.89;60.01
69200;BME280;56313;49.804;9.952;2022-08-01T10:48:58;99304.88;;;22.94;56.00
69200;BME280;56313;49.804;9.952;2022-08-01T10:51:26;99300.81;;;22.23;62.85
69200;BME280;56313;49.804;9.952;2022-08-01T10:53:53;99296.00;;;22.81;57.54
69200;BME280;56313;49.804;9.952;2022-08-01T10:56:20;99295.84;;;22.64;60.80
69200;BME280;56313;49.804;9.952;2022-08-01T10:58:47;99298.50;;;22.45;61.92
69200;BME280;56313;49.804;9.952;2022-08-01T11:01:24;99292.72;;;22.48;62.32
69200;BME280;56313;49.804;9.952;2022-08-01T11:09:01;99289.69;;;24.84;50.55
69200;BME280;56313;49.804;9.952;2022-08-01T11:11:27;99293.75;;;24.58;49.34
69200;BME280;56313;49.804;9.952;2022-08-01T11:16:33;99297.38;;;23.98;51.78
69200;BME280;56313;49.804;9.952;2022-08-01T11:22:09;99278.81;;;23.56;56.95
69200;BME280;56313;49.804;9.952;2022-08-01T11:27:31;99277.28;;;23.36;52.73
69200;BME280;56313;49.804;9.952;2022-08-01T11:32:57;99269.47;;;22.98;59.28
69200;BME280;56313;49.804;9.952;2022-08-01T11:35:24;99266.22;;;23.08;58.26
69200;BME280;56313;49.804;9.952;2022-08-01T11:37:54;99269.34;;;22.13;62.52
69200;BME280;56313;49.804;9.952;2022-08-01T11:40:28;99267.25;;;24.44;53.41
69200;BME280;56313;49.804;9.952;2022-08-01T11:45:51;99264.03;;;22.44;61.27
69200;BME280;56313;49.804;9.952;2022-08-01T11:48:19;99266.13;;;23.27;53.02
69200;BME280;56313;49.804;9.952;2022-08-01T11:50:45;99267.41;;;22.70;60.13
69200;BME280;56313;49.804;9.952;2022-08-01T11:53:11;99268.75;;;22.30;61.57
69200;BME280;56313;49.804;9.952;2022-08-01T11:55:51;99262.78;;;22.77;60.52
69200;BME280;56313;49.804;9.952;2022-08-01T11:58:22;99265.94;;;23.52;57.65
69200;BME280;56313;49.804;9.952;2022-08-01T12:00:56;99255.72;;;24.73;48.68
69200;BME280;56313;49.804;9.952;2022-08-01T12:03:29;99266.06;;;24.11;54.73
69200;BME280;56313;49.804;9.952;2022-08-01T12:05:56;99264.44;;;22.10;62.90
69200;BME280;56313;49.804;9.952;2022-08-01T12:08:26;99254.03;;;23.12;53.73
69200;BME280;56313;49.804;9.952;2022-08-01T12:10:52;99255.09;;;23.11;54.91
69200;BME280;56313;49.804;9.952;2022-08-01T12:13:18;99252.63;;;23.10;56.12
69200;BME280;56313;49.804;9.952;2022-08-01T12:15:50;99258.88;;;24.70;48.26
69200;BME280;56313;49.804;9.952;2022-08-01T12:18:16;99247.34;;;24.52;52.38
69200;BME280;56313;49.804;9.952;2022-08-01T12:20:43;99257.41;;;24.91;48.20
69200;BME280;56313;49.804;9.952;2022-08-01T12:23:11;99263.03;;;24.77;48.31
69200;BME280;56313;49.804;9.952;2022-08-01T12:25:38;99243.97;;;24.74;50.04
69200;BME280;56313;49.804;9.952;2022-08-01T12:28:11;99252.88;;;25.48;45.43
69200;BME280;56313;49.804;9.952;2022-08-01T12:30:49;99255.28;;;25.27;47.44
69200;BME280;56313;49.804;9.952;2022-08-01T12:33:17;99243.19;;;24.03;54.59
69200;BME280;56313;49.804;9.952;2022-08-01T12:35:43;99240.56;;;23.07;55.54
69200;BME280;56313;49.804;9.952;2022-08-01T12:38:20;99242.78;;;23.10;56.59
69200;BME280;56313;49.804;9.952;2022-08-01T12:40:48;99247.16;;;22.93;54.93
69200;BME280;56313;49.804;9.952;2022-08-01T12:43:18;99244.50;;;22.93;54.75
69200;BME280;56313;49.804;9.952;2022-08-01T12:45:45;99238.53;;;24.86;47.73
69200;BME280;56313;49.804;9.952;2022-08-01T12:48:14;99238.50;;;24.22;54.36
69200;BME280;56313;49.804;9.952;2022-08-01T12:50:42;99236.53;;;22.74;59.11
69200;BME280;56313;49.804;9.952;2022-08-01T12:53:09;99239.50;;;24.79;47.84
69200;BME280;56313;49.804;9.952;2022-08-01T12:55:46;99242.06;;;22.91;58.98
69200;BME280;56313;49.804;9.952;2022-08-01T12:58:13;99241.63;;;24.95;47.16
69200;BME280;56313;49.804;9.952;2022-08-01T13:00:39;99242.94;;;25.43;45.70
69200;BME280;56313;49.804;9.952;2022-08-01T13:03:16;99246.31;;;24.70;48.18
69200;BME280;56313;49.804;9.952;2022-08-01T13:05:52;99241.69;;;25.51;44.97
69200;BME280;56313;49.804;9.952;2022-08-01T13:08:30;99246.53;;;25.15;46.76
69200;BME280;56313;49.804;9.952;2022-08-01T13:11:04;99240.59;;;24.96;49.22
69200;BME280;56313;49.804;9.952;2022-08-01T13:13:44;99230.25;;;24.70;47.67
69200;BME280;56313;49.804;9.952;2022-08-01T13:16:12;99235.41;;;22.82;58.68
69200;BME280;56313;49.804;9.952;2022-08-01T13:18:38;99238.06;;;22.70;59.39
69200;BME280;56313;49.804;9.952;2022-08-01T13:23:39;99233.97;;;24.11;47.53
69200;BME280;56313;49.804;9.952;2022-08-01T13:26:06;99228.97;;;23.37;50.79
69200;BME280;56313;49.804;9.952;2022-08-01T13:28:32;99229.16;;;22.88;58.49
69200;BME280;56313;49.804;9.952;2022-08-01T13:31:02;99223.25;;;24.23;51.35
69200;BME280;56313;49.804;9.952;2022-08-01T13:33:41;99212.19;;;22.51;60.52
69200;BME280;56313;49.804;9.952;2022-08-01T13:36:07;99214.41;;;22.97;58.88
69200;BME280;56313;49.804;9.952;2022-08-01T13:38:32;99216.28;;;22.23;61.76
69200;BME280;56313;49.804;9.952;2022-08-01T13:41:16;99215.94;;;22.20;62.18